Time;durP1;ratioP1;P1;durP2;ratioP2;P2;SDS_P1;SDS_P2;PMS_P1;PMS_P2;Temp;Humidity;BMP_temperature;BMP_pressure;BME280_temperature;BME280_humidity;BME280_pressure;Samples;Min_cycle;Max_cycle;Signal;HPM_P1;HPM_P2
2021/03/05 00:00:11;;;;;;;3.60;0.65;;;24.90;25.40;;;;;;5095838;28;20076;-64
2021/03/05 00:02:38;;;;;;;8.60;0.75;;;24.90;25.80;;;;;;5094310;28;20081;-63
2021/03/05 00:05:06;;;;;;;3.33;0.90;;;24.90;25.70;;;;;;5092717;28;20100;-64
2021/03/05 00:07:33;;;;;;;4.40;0.70;;;24.90;25.90;;;;;;5088691;28;20072;-65
2021/03/05 00:10:00;;;;;;;2.97;1.00;;;24.90;25.40;;;;;;5094340;28;20065;-65
2021/03/05 00:12:27;;;;;;;3.25;0.73;;;24.80;25.90;;;;;;5092194;28;20616;-63
2021/03/05 00:14:53;;;;;;;1.17;0.63;;;24.80;25.70;;;;;;5094845;28;20150;-63
2021/03/05 00:17:20;;;;;;;2.22;0.70;;;24.80;25.70;;;;;;5099098;28;20102;-64
2021/03/05 00:19:46;;;;;;;5.22;0.80;;;24.80;25.40;;;;;;5097324;28;20177;-63
2021/03/05 00:22:13;;;;;;;2.85;0.95;;;24.60;25.70;;;;;;5097566;28;20165;-64
2021/03/05 00:24:40;;;;;;;2.33;0.98;;;24.60;26.00;;;;;;5103428;27;20077;-65
2021/03/05 00:27:06;;;;;;;4.63;0.70;;;24.50;25.90;;;;;;5101245;28;20100;-64
2021/03/05 00:29:33;;;;;;;6.80;0.60;;;24.60;25.50;;;;;;5097458;28;20069;-64
2021/03/05 00:32:00;;;;;;;2.40;0.80;;;24.60;25.70;;;;;;5095574;28;20418;-64
2021/03/05 00:34:26;;;;;;;5.28;0.82;;;24.60;26.20;;;;;;5099260;28;20459;-63
2021/03/05 00:36:53;;;;;;;4.57;0.73;;;24.60;26.60;;;;;;5098736;28;20448;-63
2021/03/05 00:39:19;;;;;;;6.03;0.80;;;24.30;26.80;;;;;;5096826;28;20853;-64
2021/03/05 00:41:46;;;;;;;5.20;1.10;;;24.40;27.40;;;;;;5102112;27;20068;-65
2021/03/05 00:44:12;;;;;;;1.85;0.60;;;24.30;27.80;;;;;;5096818;28;20077;-63
2021/03/05 00:46:39;;;;;;;6.22;1.02;;;24.40;27.70;;;;;;5094041;28;20080;-63
2021/03/05 00:49:06;;;;;;;3.53;0.80;;;24.20;27.80;;;;;;5095027;28;20196;-65
2021/03/05 00:51:32;;;;;;;5.60;1.17;;;24.10;28.00;;;;;;5096300;28;20077;-64
2021/03/05 00:53:59;;;;;;;3.40;0.80;;;23.80;28.50;;;;;;5094775;28;20167;-65
2021/03/05 00:56:25;;;;;;;2.40;0.80;;;23.70;28.20;;;;;;5095292;28;20107;-64
2021/03/05 00:58:52;;;;;;;6.28;1.30;;;23.60;28.40;;;;;;5100728;28;20110;-65
2021/03/05 01:01:18;;;;;;;4.25;1.20;;;23.50;28.60;;;;;;5093426;28;20091;-63
2021/03/05 01:03:45;;;;;;;5.97;1.38;;;23.40;28.70;;;;;;5098127;28;20512;-65
2021/03/05 01:06:13;;;;;;;24.88;1.48;;;23.30;29.40;;;;;;5092162;28;20076;-63
2021/03/05 01:08:39;;;;;;;4.90;0.80;;;23.10;28.40;;;;;;5097663;28;20071;-65
2021/03/05 01:11:06;;;;;;;6.93;1.00;;;23.00;28.30;;;;;;5097743;28;20093;-65
2021/03/05 01:13:32;;;;;;;4.47;0.65;;;22.90;28.50;;;;;;5098628;28;20565;-64
2021/03/05 01:15:59;;;;;;;5.57;0.98;;;22.70;28.60;;;;;;5096384;28;20149;-64
2021/03/05 01:18:26;;;;;;;5.07;1.02;;;22.70;28.70;;;;;;5097760;28;20064;-64
2021/03/05 01:20:52;;;;;;;11.05;1.63;;;22.60;28.80;;;;;;5101353;28;20068;-64
2021/03/05 01:23:20;;;;;;;11.32;0.95;;;22.50;29.30;;;;;;5099801;28;20091;-64
2021/03/05 01:25:47;;;;;;;3.72;0.80;;;22.40;28.80;;;;;;5098350;28;20080;-64
2021/03/05 01:28:14;;;;;;;4.22;0.90;;;22.30;28.60;;;;;;5094823;28;20470;-66
2021/03/05 01:30:43;;;;;;;5.38;1.38;;;22.20;29.00;;;;;;5103339;28;20473;-65
2021/03/05 01:33:10;;;;;;;11.02;1.30;;;22.20;28.80;;;;;;5093780;28;20083;-66
2021/03/05 01:35:37;;;;;;;3.20;0.90;;;22.10;29.00;;;;;;5098132;28;20088;-64
2021/03/05 01:38:03;;;;;;;8.32;1.67;;;22.00;29.20;;;;;;5103308;28;20080;-66
2021/03/05 01:40:38;;;;;;;5.00;1.13;;;21.90;29.70;;;;;;5099577;28;20068;-65
2021/03/05 01:43:11;;;;;;;6.28;1.48;;;21.80;30.40;;;;;;5098835;28;20072;-63
2021/03/05 01:45:38;;;;;;;6.28;1.30;;;21.70;31.10;;;;;;5098933;28;20079;-65
2021/03/05 01:48:17;;;;;;;8.82;1.50;;;21.50;31.90;;;;;;5100036;28;20595;-64
2021/03/05 01:50:44;;;;;;;11.43;1.67;;;21.40;32.60;;;;;;5097944;28;20104;-65
2021/03/05 01:53:11;;;;;;;11.75;1.65;;;21.30;33.30;;;;;;5098296;28;20451;-65
2021/03/05 01:55:38;;;;;;;4.65;1.20;;;21.20;33.80;;;;;;5095178;28;20568;-64
2021/03/05 01:58:04;;;;;;;8.63;2.03;;;21.20;34.10;;;;;;5096756;28;20076;-64
2021/03/05 02:00:41;;;;;;;15.50;2.15;;;21.10;34.50;;;;;;5095921;28;20512;-64
2021/03/05 02:03:08;;;;;;;10.48;2.17;;;21.00;34.80;;;;;;5097830;28;20076;-64
2021/03/05 02:05:37;;;;;;;13.65;2.40;;;20.90;35.30;;;;;;5099602;28;20094;-64
2021/03/05 02:08:09;;;;;;;11.43;2.28;;;20.70;35.60;;;;;;5090207;28;20080;-65
2021/03/05 02:10:36;;;;;;;7.22;1.98;;;20.70;35.90;;;;;;5097827;28;20114;-65
2021/03/05 02:13:02;;;;;;;13.90;2.45;;;20.70;35.70;;;;;;5094786;28;20119;-64
2021/03/05 02:15:30;;;;;;;15.05;2.20;;;20.50;36.40;;;;;;5095799;28;20424;-64
2021/03/05 02:18:15;;;;;;;23.88;2.80;;;20.50;36.60;;;;;;5100777;28;20247;-65
2021/03/05 02:20:56;;;;;;;22.17;2.78;;;20.40;37.20;;;;;;5097434;28;20502;-65
2021/03/05 02:23:23;;;;;;;14.88;2.72;;;20.30;37.50;;;;;;5117835;27;20555;-63
2021/03/05 02:25:49;;;;;;;;;;;20.20;37.70;;;;;;5098206;28;20520;-65
2021/03/05 02:28:50;;;;;;;13.40;3.00;;;20.10;38.20;;;;;;5100156;28;19998;-63
2021/03/05 02:31:24;;;;;;;15.50;2.22;;;20.00;37.90;;;;;;5092144;28;20087;-65
2021/03/05 02:34:08;;;;;;;14.38;2.50;;;20.00;38.20;;;;;;5097729;28;20071;-65
2021/03/05 02:36:40;;;;;;;18.55;2.88;;;19.90;38.60;;;;;;5095232;28;20105;-65
2021/03/05 02:39:13;;;;;;;15.25;2.95;;;19.80;39.00;;;;;;5096932;28;20072;-64
2021/03/05 02:41:42;;;;;;;18.70;3.42;;;19.70;39.50;;;;;;5095314;28;20072;-61
2021/03/05 02:44:14;;;;;;;97.05;6.32;;;19.60;39.40;;;;;;5091521;28;20068;-64
2021/03/05 02:46:42;;;;;;;64.63;5.57;;;19.50;40.00;;;;;;5096818;28;20149;-60
2021/03/05 02:49:13;;;;;;;39.63;4.47;;;19.50;40.10;;;;;;5097203;28;20529;-60
2021/03/05 02:51:42;;;;;;;28.17;4.43;;;19.50;39.90;;;;;;5099472;28;20084;-64
2021/03/05 02:54:11;;;;;;;29.25;4.57;;;19.50;40.40;;;;;;5097262;28;20064;-64
2021/03/05 02:56:39;;;;;;;17.50;4.07;;;19.40;40.40;;;;;;5098684;28;20100;-64
2021/03/05 02:59:08;;;;;;;27.92;4.22;;;19.30;41.30;;;;;;5094972;28;20138;-60
2021/03/05 03:01:37;;;;;;;27.67;4.15;;;19.20;41.30;;;;;;5097580;28;20460;-64
2021/03/05 03:04:04;;;;;;;31.00;3.97;;;19.10;41.30;;;;;;5110525;27;20591;-64
2021/03/05 03:06:33;;;;;;;24.25;3.78;;;19.00;41.60;;;;;;5096719;28;20069;-64
2021/03/05 03:09:07;;;;;;;23.98;3.83;;;19.00;42.00;;;;;;5098271;28;20074;-64
2021/03/05 03:11:37;;;;;;;24.90;4.60;;;18.90;41.40;;;;;;5096525;28;20090;-65
2021/03/05 03:14:05;;;;;;;21.63;3.65;;;18.80;42.10;;;;;;5095875;28;20145;-64
2021/03/05 03:16:35;;;;;;;30.30;4.00;;;18.80;42.10;;;;;;5098542;28;20096;-64
2021/03/05 03:19:08;;;;;;;22.42;3.83;;;18.70;42.20;;;;;;5094641;28;20164;-64
2021/03/05 03:21:36;;;;;;;23.73;4.28;;;18.60;42.50;;;;;;5094880;28;20581;-65
2021/03/05 03:24:03;;;;;;;13.98;4.47;;;18.50;41.90;;;;;;5095547;28;20117;-65
2021/03/05 03:26:31;;;;;;;16.60;4.13;;;18.50;42.20;;;;;;5099225;28;20079;-65
2021/03/05 03:28:59;;;;;;;31.85;5.07;;;18.40;42.20;;;;;;5097654;28;20076;-64
2021/03/05 03:31:26;;;;;;;35.70;5.03;;;18.30;43.10;;;;;;5096741;28;20276;-64
2021/03/05 03:33:56;;;;;;;31.23;4.57;;;18.30;43.50;;;;;;5094318;28;20076;-64
2021/03/05 03:36:23;;;;;;;24.73;5.05;;;18.20;43.50;;;;;;5093062;28;20445;-63
2021/03/05 03:38:50;;;;;;;31.50;4.57;;;18.10;43.40;;;;;;5098396;28;20436;-63
2021/03/05 03:41:17;;;;;;;29.02;5.38;;;18.10;43.40;;;;;;5098216;28;21061;-66
2021/03/05 03:43:43;;;;;;;23.55;4.90;;;18.10;43.40;;;;;;5093408;28;20079;-64
2021/03/05 03:46:10;;;;;;;21.05;4.45;;;18.00;43.70;;;;;;5095300;28;20079;-64
2021/03/05 03:48:51;;;;;;;30.75;4.65;;;17.90;43.70;;;;;;5097446;28;20501;-64
2021/03/05 03:51:22;;;;;;;21.55;4.13;;;17.90;43.80;;;;;;5094841;28;20075;-63
2021/03/05 03:53:51;;;;;;;31.33;5.18;;;17.80;44.80;;;;;;5094771;28;20076;-64
2021/03/05 03:56:19;;;;;;;35.83;4.60;;;17.80;44.60;;;;;;5093705;28;20452;-64
2021/03/05 03:58:50;;;;;;;31.33;5.00;;;17.80;45.20;;;;;;5093561;28;20065;-63
2021/03/05 04:01:18;;;;;;;34.03;5.25;;;17.70;45.40;;;;;;5093475;28;20120;-66
2021/03/05 04:03:49;;;;;;;41.28;5.43;;;17.60;45.40;;;;;;5096002;28;20178;-65
2021/03/05 04:06:21;;;;;;;29.88;4.30;;;17.60;45.70;;;;;;5095646;28;20529;-66
2021/03/05 04:08:52;;;;;;;34.08;5.32;;;17.60;45.60;;;;;;5091602;28;20069;-68
2021/03/05 04:11:20;;;;;;;29.88;5.10;;;17.50;45.70;;;;;;5098171;28;20074;-65
2021/03/05 04:13:48;;;;;;;36.95;7.72;;;17.50;45.90;;;;;;5093919;28;20179;-66
2021/03/05 04:16:16;;;;;;;39.13;8.55;;;17.40;46.00;;;;;;5090557;28;20108;-67
2021/03/05 04:18:42;;;;;;;41.80;8.38;;;17.40;46.40;;;;;;5091633;28;20088;-64
2021/03/05 04:21:18;;;;;;;37.75;9.20;;;17.40;45.90;;;;;;5101707;28;20088;-64
2021/03/05 04:23:45;;;;;;;37.35;9.35;;;17.30;46.60;;;;;;5094412;28;20157;-64
2021/03/05 04:26:14;;;;;;;45.45;9.40;;;17.30;47.20;;;;;;5099373;28;20398;-67
2021/03/05 04:28:41;;;;;;;48.38;10.55;;;17.20;47.40;;;;;;5094285;28;20553;-65
2021/03/05 04:31:09;;;;;;;49.58;10.52;;;17.20;46.90;;;;;;5091243;28;20540;-65
2021/03/05 04:33:36;;;;;;;49.30;10.18;;;17.20;47.00;;;;;;5097045;28;20121;-66
2021/03/05 04:36:05;;;;;;;65.10;11.55;;;17.10;47.70;;;;;;5098013;28;20430;-65
2021/03/05 04:38:32;;;;;;;56.10;11.32;;;17.00;47.70;;;;;;5096940;28;20064;-64
2021/03/05 04:40:59;;;;;;;40.75;10.73;;;17.00;47.70;;;;;;5095426;28;20068;-66
2021/03/05 04:43:25;;;;;;;45.92;10.35;;;17.00;47.90;;;;;;5097155;28;20072;-65
2021/03/05 04:45:52;;;;;;;45.58;10.32;;;16.90;48.20;;;;;;5095077;28;20159;-64
2021/03/05 04:48:19;;;;;;;55.10;11.27;;;16.90;47.80;;;;;;5097756;28;20068;-65
2021/03/05 04:50:46;;;;;;;50.40;10.13;;;16.90;47.90;;;;;;5095551;28;20083;-63
2021/03/05 04:53:13;;;;;;;53.38;11.00;;;16.80;47.90;;;;;;5092496;28;20444;-66
2021/03/05 04:55:40;;;;;;;52.42;10.18;;;16.80;47.90;;;;;;5075612;28;20146;-64
2021/03/05 04:58:07;;;;;;;41.22;9.13;;;16.80;48.00;;;;;;5097489;28;20098;-68
2021/03/05 05:00:34;;;;;;;41.63;9.23;;;16.70;48.70;;;;;;5094147;28;20519;-66
2021/03/05 05:03:00;;;;;;;;;;;16.70;48.80;;;;;;5098758;28;20069;-65
2021/03/05 05:05:26;;;;;;;34.10;8.60;;;16.60;48.80;;;;;;5101750;28;19964;-65
2021/03/05 05:07:54;;;;;;;;;;;16.50;49.10;;;;;;5095539;28;20068;-65
2021/03/05 05:10:21;;;;;;;30.63;7.32;;;16.50;49.50;;;;;;5098745;28;20002;-66
2021/03/05 05:12:47;;;;;;;37.05;8.05;;;16.50;49.10;;;;;;5097222;28;20112;-65
2021/03/05 05:15:14;;;;;;;27.42;7.70;;;16.40;49.40;;;;;;5097465;28;20100;-65
2021/03/05 05:17:41;;;;;;;35.08;7.90;;;16.30;49.90;;;;;;5098068;28;21550;-65
2021/03/05 05:20:09;;;;;;;26.45;7.50;;;16.30;49.80;;;;;;5098104;28;20076;-66
2021/03/05 05:22:37;;;;;;;39.30;8.82;;;16.30;49.80;;;;;;5096982;28;20072;-66
2021/03/05 05:25:05;;;;;;;31.05;7.97;;;16.20;49.90;;;;;;5099013;28;20533;-65
2021/03/05 05:27:32;;;;;;;36.83;8.15;;;16.20;50.30;;;;;;5102069;28;20093;-65
2021/03/05 05:29:59;;;;;;;32.28;8.20;;;16.20;50.90;;;;;;5094866;28;20073;-68
2021/03/05 05:32:25;;;;;;;;;;;16.10;50.70;;;;;;5096426;28;20068;-64
2021/03/05 05:34:52;;;;;;;43.05;9.70;;;16.00;50.40;;;;;;5094804;28;20011;-65
2021/03/05 05:37:18;;;;;;;42.35;10.38;;;16.00;50.50;;;;;;5102543;28;20087;-65
2021/03/05 05:39:45;;;;;;;47.50;11.32;;;16.00;50.60;;;;;;5097897;28;20080;-65
2021/03/05 05:42:11;;;;;;;;;;;16.00;51.00;;;;;;5096358;28;20083;-64
2021/03/05 05:44:39;;;;;;;36.35;9.88;;;16.00;51.20;;;;;;5095965;28;20006;-64
2021/03/05 05:47:09;;;;;;;46.72;10.43;;;15.90;51.40;;;;;;5102509;28;20157;-65
2021/03/05 05:49:37;;;;;;;41.40;10.30;;;15.90;51.40;;;;;;5098258;28;20589;-65
2021/03/05 05:52:05;;;;;;;38.47;9.43;;;15.90;51.70;;;;;;5096025;28;20104;-65
2021/03/05 05:54:34;;;;;;;39.60;9.65;;;15.80;52.10;;;;;;5097138;28;20075;-65
2021/03/05 05:57:02;;;;;;;43.95;9.88;;;15.80;52.10;;;;;;5101196;28;20174;-65
2021/03/05 05:59:28;;;;;;;50.13;10.82;;;15.70;51.90;;;;;;5094949;28;20080;-64
2021/03/05 06:01:55;;;;;;;53.25;11.45;;;15.70;52.10;;;;;;5098961;28;20076;-64
2021/03/05 06:04:23;;;;;;;45.15;11.68;;;15.70;52.30;;;;;;5100451;28;20122;-65
2021/03/05 06:06:53;;;;;;;55.72;12.10;;;15.60;52.20;;;;;;5099877;28;20073;-65
2021/03/05 06:09:19;;;;;;;39.28;12.15;;;15.50;52.10;;;;;;5096406;28;20104;-64
2021/03/05 06:11:46;;;;;;;62.78;14.00;;;15.60;52.70;;;;;;5098604;28;20152;-65
2021/03/05 06:14:13;;;;;;;;;;;15.50;52.80;;;;;;5090121;28;20088;-66
2021/03/05 06:16:59;;;;;;;54.28;13.20;;;15.50;53.00;;;;;;5094872;28;20083;-65
2021/03/05 06:19:29;;;;;;;59.25;12.75;;;15.40;52.90;;;;;;5098682;28;20424;-65
2021/03/05 06:21:57;;;;;;;52.17;13.30;;;15.40;53.00;;;;;;5095913;28;20076;-65
2021/03/05 06:24:23;;;;;;;66.47;12.10;;;15.40;52.80;;;;;;5099161;28;20068;-65
2021/03/05 06:26:58;;;;;;;64.32;12.10;;;15.40;53.00;;;;;;5097102;28;20076;-66
2021/03/05 06:29:41;;;;;;;55.53;11.00;;;15.30;53.20;;;;;;5100973;28;20142;-65
2021/03/05 06:32:09;;;;;;;72.30;13.90;;;15.30;53.70;;;;;;5096026;28;20125;-65
2021/03/05 06:34:48;;;;;;;73.10;14.85;;;15.30;53.30;;;;;;5099028;28;20077;-64
2021/03/05 06:37:16;;;;;;;63.35;14.38;;;15.30;53.30;;;;;;5094691;28;20534;-65
2021/03/05 06:39:44;;;;;;;71.43;14.55;;;15.20;53.40;;;;;;5101762;28;20080;-66
2021/03/05 06:42:12;;;;;;;85.63;15.60;;;15.30;54.00;;;;;;5098130;28;20073;-65
2021/03/05 06:44:43;;;;;;;77.22;16.20;;;15.20;54.20;;;;;;5095346;28;20069;-65
2021/03/05 06:47:11;;;;;;;87.70;16.98;;;15.10;54.10;;;;;;5095775;28;20436;-64
2021/03/05 06:49:42;;;;;;;96.65;18.40;;;15.10;54.50;;;;;;5095948;28;20073;-65
2021/03/05 06:52:10;;;;;;;91.65;18.05;;;15.10;54.60;;;;;;5097178;28;20076;-65
2021/03/05 06:54:40;;;;;;;68.05;18.35;;;15.10;54.50;;;;;;5097167;28;20537;-64
2021/03/05 06:57:08;;;;;;;82.22;18.00;;;15.10;54.70;;;;;;5092735;28;20099;-64
2021/03/05 06:59:55;;;;;;;79.20;18.23;;;15.00;54.50;;;;;;5097065;28;20121;-65
2021/03/05 07:02:30;;;;;;;84.93;18.98;;;15.00;54.50;;;;;;5094079;28;20097;-65
2021/03/05 07:04:57;;;;;;;84.07;19.20;;;15.00;54.60;;;;;;5091659;28;20068;-66
2021/03/05 07:07:23;;;;;;;;;;;15.00;54.70;;;;;;5094901;28;20179;-65
2021/03/05 07:09:54;;;;;;;76.47;19.98;;;15.00;54.90;;;;;;5098087;28;19963;-65
2021/03/05 07:12:26;;;;;;;85.85;20.27;;;14.90;54.90;;;;;;5093363;28;20112;-67
2021/03/05 07:15:06;;;;;;;85.22;21.88;;;14.90;54.90;;;;;;5096510;28;20104;-65
2021/03/05 07:17:33;;;;;;;92.13;22.25;;;14.90;55.00;;;;;;5096647;28;20126;-65
2021/03/05 07:20:00;;;;;;;111.28;25.38;;;14.90;55.00;;;;;;5094210;28;20101;-65
2021/03/05 07:22:29;;;;;;;89.78;23.98;;;14.90;55.20;;;;;;5097298;28;20417;-66
2021/03/05 07:24:57;;;;;;;109.60;26.92;;;14.80;55.80;;;;;;5092541;28;20079;-65
2021/03/05 07:27:46;;;;;;;98.65;23.90;;;14.80;56.20;;;;;;5092007;28;20102;-64
2021/03/05 07:30:18;;;;;;;110.30;24.90;;;14.80;56.40;;;;;;5094008;28;20160;-65
2021/03/05 07:32:50;;;;;;;102.78;26.73;;;14.80;56.10;;;;;;5096066;28;20068;-65
2021/03/05 07:35:40;;;;;;;101.63;26.77;;;14.70;56.00;;;;;;5097368;28;20115;-64
2021/03/05 07:38:14;;;;;;;99.05;27.90;;;14.70;56.40;;;;;;5092728;28;20072;-65
2021/03/05 07:40:43;;;;;;;106.00;26.88;;;14.60;56.40;;;;;;5092209;28;20088;-65
2021/03/05 07:43:11;;;;;;;116.05;28.75;;;14.60;56.60;;;;;;5092944;28;20096;-65
2021/03/05 07:45:38;;;;;;;129.90;29.05;;;14.60;57.00;;;;;;5096564;28;20096;-65
2021/03/05 07:48:10;;;;;;;98.35;28.67;;;14.50;56.40;;;;;;5096699;28;20075;-64
2021/03/05 07:50:37;;;;;;;110.00;28.45;;;14.50;56.30;;;;;;5092343;28;20098;-65
2021/03/05 07:53:04;;;;;;;97.10;30.00;;;14.50;56.40;;;;;;5094704;28;20072;-64
2021/03/05 07:55:41;;;;;;;103.38;29.33;;;14.50;56.50;;;;;;5098132;28;20483;-64
2021/03/05 07:58:09;;;;;;;117.35;32.78;;;14.50;56.30;;;;;;5092157;28;20164;-64
2021/03/05 08:00:42;;;;;;;115.38;32.15;;;14.40;56.30;;;;;;5092841;28;20075;-64
2021/03/05 08:03:08;;;;;;;114.13;34.83;;;14.40;56.00;;;;;;5095130;28;20529;-64
2021/03/05 08:05:40;;;;;;;128.60;35.10;;;14.40;56.10;;;;;;5091566;28;20124;-64
2021/03/05 08:08:24;;;;;;;115.45;34.53;;;14.40;56.00;;;;;;5096048;28;20102;-65
2021/03/05 08:10:52;;;;;;;119.60;34.83;;;14.40;56.30;;;;;;5093023;28;20082;-64
2021/03/05 08:13:43;;;;;;;132.30;37.97;;;14.30;56.00;;;;;;5092292;28;20199;-64
2021/03/05 08:16:28;;;;;;;107.72;36.83;;;14.30;55.60;;;;;;5097369;28;20568;-64
2021/03/05 08:19:07;;;;;;;117.22;36.53;;;14.30;55.40;;;;;;5093195;28;20073;-64
2021/03/05 08:21:51;;;;;;;121.78;37.15;;;14.20;55.40;;;;;;5091899;28;20083;-65
2021/03/05 08:24:27;;;;;;;109.90;37.50;;;14.20;55.20;;;;;;5095122;28;20529;-64
2021/03/05 08:27:06;;;;;;;123.45;37.75;;;14.20;55.10;;;;;;5092555;28;20548;-65
2021/03/05 08:29:53;;;;;;;117.07;35.78;;;14.20;55.70;;;;;;5093445;28;20508;-62
2021/03/05 08:32:40;;;;;;;;;;;14.20;56.40;;;;;;5093111;28;20091;-65
2021/03/05 08:35:11;;;;;;;106.53;35.05;;;14.10;55.60;;;;;;5086698;28;19956;-64
2021/03/05 08:38:08;;;;;;;107.25;34.97;;;14.10;55.70;;;;;;5095226;28;20223;-63
2021/03/05 08:40:46;;;;;;;94.40;32.55;;;14.10;56.20;;;;;;5099694;27;20508;-64
2021/03/05 08:43:26;;;;;;;104.45;31.27;;;14.10;55.90;;;;;;5095992;28;20163;-63
2021/03/05 08:45:52;;;;;;;101.15;31.48;;;14.10;55.80;;;;;;5095305;28;20110;-64
2021/03/05 08:48:33;;;;;;;76.90;29.70;;;14.10;55.90;;;;;;5099450;28;20432;-63
2021/03/05 08:51:17;;;;;;;89.65;32.70;;;14.00;55.90;;;;;;5094728;28;20079;-64
2021/03/05 08:53:49;;;;;;;104.93;33.72;;;14.10;56.20;;;;;;5097660;28;20539;-64
2021/03/05 08:56:26;;;;;;;103.65;34.30;;;14.10;55.90;;;;;;5098206;28;20678;-63
2021/03/05 08:59:09;;;;;;;107.32;33.53;;;14.00;56.00;;;;;;5096146;28;20117;-64
2021/03/05 09:01:42;;;;;;;102.38;32.80;;;14.00;55.60;;;;;;5098020;28;20148;-64
2021/03/05 09:04:18;;;;;;;106.90;31.25;;;13.90;54.90;;;;;;5099380;28;20509;-63
2021/03/05 09:06:55;;;;;;;89.85;29.42;;;14.00;54.70;;;;;;5095963;28;20080;-63
2021/03/05 09:09:25;;;;;;;;;;;14.00;54.50;;;;;;5097580;28;20105;-65
2021/03/05 09:12:17;;;;;;;71.45;21.55;;;14.00;52.70;;;;;;5096511;28;19999;-63
2021/03/05 09:14:45;;;;;;;60.28;22.15;;;14.00;52.50;;;;;;5092315;28;20118;-63
2021/03/05 09:17:13;;;;;;;69.90;17.58;;;13.90;52.30;;;;;;5096019;28;20104;-63
2021/03/05 09:19:45;;;;;;;57.50;17.88;;;13.80;51.60;;;;;;5093521;28;20105;-63
2021/03/05 09:22:15;;;;;;;62.22;17.40;;;13.80;51.50;;;;;;5095911;28;20076;-64
2021/03/05 09:24:58;;;;;;;59.38;17.02;;;13.80;51.20;;;;;;5096122;28;20073;-65
2021/03/05 09:27:25;;;;;;;56.78;17.65;;;13.70;51.40;;;;;;5093374;28;20084;-63
2021/03/05 09:29:52;;;;;;;59.15;16.95;;;13.70;51.30;;;;;;5097111;28;20180;-63
2021/03/05 09:32:20;;;;;;;53.63;17.77;;;13.80;51.60;;;;;;5093521;28;20543;-63
2021/03/05 09:34:58;;;;;;;50.13;16.52;;;13.70;51.40;;;;;;5095383;28;20517;-62
2021/03/05 09:37:29;;;;;;;41.85;14.85;;;13.60;51.20;;;;;;5094927;28;20110;-63
2021/03/05 09:39:58;;;;;;;44.35;12.88;;;13.60;51.30;;;;;;5098703;28;20454;-64
2021/03/05 09:42:54;;;;;;;33.50;12.05;;;13.60;51.00;;;;;;5094093;28;20421;-63
2021/03/05 09:45:40;;;;;;;33.85;10.90;;;13.50;50.90;;;;;;5093878;28;20065;-63
2021/03/05 09:48:12;;;;;;;36.05;10.70;;;13.50;50.80;;;;;;5092048;28;20543;-61
2021/03/05 09:50:39;;;;;;;32.90;10.35;;;13.50;51.00;;;;;;5093698;28;20156;-61
2021/03/05 09:53:27;;;;;;;33.45;10.43;;;13.50;51.10;;;;;;5094003;28;20553;-63
2021/03/05 09:55:59;;;;;;;31.55;9.68;;;13.50;51.10;;;;;;5093612;28;20097;-62
2021/03/05 09:58:26;;;;;;;22.58;8.38;;;13.50;50.70;;;;;;5093893;28;20598;-62
2021/03/05 10:00:53;;;;;;;29.52;8.10;;;13.40;50.80;;;;;;5095980;28;20080;-63
2021/03/05 10:03:20;;;;;;;32.05;8.50;;;13.40;50.40;;;;;;5096011;28;20586;-63
2021/03/05 10:05:48;;;;;;;28.52;7.70;;;13.40;50.50;;;;;;5095583;28;20525;-61
2021/03/05 10:08:16;;;;;;;25.90;6.50;;;13.50;50.20;;;;;;5093187;28;20494;-61
2021/03/05 10:11:08;;;;;;;23.83;6.60;;;13.50;50.00;;;;;;5093620;28;20084;-61
2021/03/05 10:13:55;;;;;;;34.30;5.90;;;13.40;50.00;;;;;;5091880;28;20104;-61
2021/03/05 10:16:31;;;;;;;30.52;4.82;;;13.40;49.90;;;;;;5093883;28;20101;-62
2021/03/05 10:19:10;;;;;;;18.88;3.92;;;13.40;49.70;;;;;;5093629;28;20080;-62
2021/03/05 10:21:51;;;;;;;27.33;3.75;;;13.40;50.10;;;;;;5093804;28;20069;-63
2021/03/05 10:24:29;;;;;;;37.90;4.35;;;13.40;50.20;;;;;;5108427;27;20126;-63
2021/03/05 10:27:19;;;;;;;21.10;4.20;;;13.40;50.30;;;;;;5094101;28;20529;-64
2021/03/05 10:29:48;;;;;;;29.02;3.85;;;13.20;50.40;;;;;;5099873;28;20118;-63
2021/03/05 10:32:18;;;;;;;22.27;4.15;;;13.30;50.80;;;;;;5095049;28;20068;-63
2021/03/05 10:34:47;;;;;;;18.30;4.40;;;13.30;50.70;;;;;;5095221;28;20533;-64
2021/03/05 10:37:14;;;;;;;20.95;4.53;;;13.20;50.70;;;;;;5097920;28;20096;-63
2021/03/05 10:39:42;;;;;;;25.83;5.10;;;13.20;50.80;;;;;;5095118;28;20069;-62
2021/03/05 10:42:14;;;;;;;26.63;5.35;;;13.20;51.00;;;;;;5096008;28;20113;-63
2021/03/05 10:44:42;;;;;;;35.72;4.72;;;13.20;50.80;;;;;;5093820;28;20125;-63
2021/03/05 10:47:11;;;;;;;22.45;4.40;;;13.20;50.10;;;;;;5081965;28;20155;-62
2021/03/05 10:49:38;;;;;;;23.83;4.20;;;13.10;49.80;;;;;;5091272;28;20073;-60
2021/03/05 10:52:07;;;;;;;19.00;3.90;;;13.10;50.10;;;;;;5095786;28;20064;-63
2021/03/05 10:54:33;;;;;;;30.50;5.40;;;13.00;49.70;;;;;;5095797;28;20075;-64
2021/03/05 10:57:00;;;;;;;19.90;3.22;;;13.00;49.20;;;;;;5097955;28;20120;-63
2021/03/05 10:59:26;;;;;;;;;;;12.80;49.30;;;;;;5095624;28;20080;-63
2021/03/05 11:01:54;;;;;;;16.17;3.22;;;12.80;49.50;;;;;;5092764;28;19962;-62
2021/03/05 11:04:25;;;;;;;10.27;2.95;;;12.80;49.40;;;;;;5099477;28;20118;-64
2021/03/05 11:06:53;;;;;;;16.48;2.92;;;12.80;49.80;;;;;;5090615;28;20083;-63
2021/03/05 11:09:21;;;;;;;9.05;3.20;;;12.80;49.40;;;;;;5095863;28;20512;-63
2021/03/05 11:11:48;;;;;;;18.00;3.80;;;12.70;49.40;;;;;;5089982;28;20156;-61
2021/03/05 11:14:15;;;;;;;10.48;3.63;;;12.80;49.90;;;;;;5095139;28;20159;-62
2021/03/05 11:16:42;;;;;;;13.05;3.97;;;12.80;49.00;;;;;;5094378;28;20120;-60
2021/03/05 11:19:09;;;;;;;10.68;4.20;;;12.80;49.00;;;;;;5096158;28;20517;-61
2021/03/05 11:21:36;;;;;;;19.05;4.15;;;12.80;48.90;;;;;;5090952;28;20073;-62
2021/03/05 11:24:03;;;;;;;13.13;4.05;;;12.80;48.70;;;;;;5098241;28;20202;-63
2021/03/05 11:26:30;;;;;;;11.93;4.10;;;12.80;48.70;;;;;;5096908;28;20560;-62
2021/03/05 11:28:57;;;;;;;16.70;3.58;;;12.80;48.70;;;;;;5089197;28;20445;-62
2021/03/05 11:31:25;;;;;;;10.10;4.13;;;12.80;48.70;;;;;;5090410;28;20080;-62
2021/03/05 11:33:52;;;;;;;9.93;4.38;;;12.80;49.00;;;;;;5094567;28;20166;-62
2021/03/05 11:36:19;;;;;;;15.93;3.63;;;12.80;49.20;;;;;;5095957;28;20288;-63
2021/03/05 11:38:48;;;;;;;11.20;3.42;;;12.70;49.40;;;;;;5093669;28;20152;-63
2021/03/05 11:41:16;;;;;;;8.32;3.70;;;12.80;49.20;;;;;;5095582;28;20203;-62
2021/03/05 11:43:51;;;;;;;10.32;3.95;;;12.70;49.40;;;;;;5094918;28;20071;-62
2021/03/05 11:46:20;;;;;;;7.50;3.20;;;12.80;49.70;;;;;;5092446;28;21341;-64
2021/03/05 11:48:47;;;;;;;12.30;3.63;;;12.70;49.40;;;;;;5093757;28;20065;-63
2021/03/05 11:51:14;;;;;;;8.95;3.60;;;12.70;49.30;;;;;;5096589;28;20420;-62
2021/03/05 11:53:41;;;;;;;9.45;2.60;;;12.70;49.20;;;;;;5097954;28;20069;-63
2021/03/05 11:56:08;;;;;;;11.13;2.90;;;12.70;49.00;;;;;;5091618;28;20103;-63
2021/03/05 11:58:36;;;;;;;16.90;3.40;;;12.70;49.40;;;;;;5095558;28;20080;-63
2021/03/05 12:01:03;;;;;;;14.63;3.15;;;12.70;49.20;;;;;;5089304;28;20087;-63
2021/03/05 12:03:30;;;;;;;15.88;3.00;;;12.70;49.30;;;;;;5096515;28;20072;-62
2021/03/05 12:05:56;;;;;;;9.70;2.45;;;12.60;49.30;;;;;;5095080;28;20105;-62
2021/03/05 12:08:23;;;;;;;;;;;12.70;49.80;;;;;;5096086;28;20083;-63
2021/03/05 12:10:50;;;;;;;11.95;2.70;;;12.60;49.90;;;;;;5093390;28;20486;-62
2021/03/05 12:13:17;;;;;;;13.75;2.67;;;12.60;50.00;;;;;;5101688;28;20170;-63
2021/03/05 12:15:44;;;;;;;15.15;3.65;;;12.60;50.10;;;;;;5097359;28;20176;-61
2021/03/05 12:18:11;;;;;;;23.00;3.72;;;12.60;50.00;;;;;;5100464;28;20469;-61
2021/03/05 12:20:38;;;;;;;14.35;3.25;;;12.60;50.00;;;;;;5100815;28;20095;-62
2021/03/05 12:23:06;;;;;;;19.02;3.15;;;12.60;50.20;;;;;;5100150;28;20164;-63
2021/03/05 12:25:32;;;;;;;11.55;3.20;;;12.70;50.30;;;;;;5095908;28;20077;-63
2021/03/05 12:27:59;;;;;;;8.68;3.47;;;12.70;50.60;;;;;;5100526;28;20096;-63
2021/03/05 12:30:25;;;;;;;;;;;12.60;50.90;;;;;;5096661;28;20068;-64
2021/03/05 12:32:52;;;;;;;14.90;3.78;;;12.60;50.60;;;;;;5097966;28;19972;-62
2021/03/05 12:35:18;;;;;;;;;;;12.50;50.70;;;;;;5099409;28;20098;-63
2021/03/05 12:37:46;;;;;;;7.32;3.20;;;12.50;50.70;;;;;;5098098;28;20063;-63
2021/03/05 12:40:13;;;;;;;10.68;3.20;;;12.50;50.70;;;;;;5100200;28;20433;-63
2021/03/05 12:42:43;;;;;;;11.52;3.55;;;12.40;50.00;;;;;;5098361;28;20137;-64
2021/03/05 12:45:11;;;;;;;12.02;4.15;;;12.40;50.30;;;;;;5099292;28;20072;-64
2021/03/05 12:47:38;;;;;;;14.45;3.70;;;12.50;50.40;;;;;;5100765;28;20071;-62
2021/03/05 12:50:06;;;;;;;14.45;3.28;;;12.50;50.50;;;;;;5098297;28;20079;-63
2021/03/05 12:52:33;;;;;;;11.10;3.08;;;12.40;50.60;;;;;;5097862;28;20073;-62